sensor_id;sensor_type;location;lat;lon;timestamp;pressure;altitude;pressure_sealevel;temperature;humidity
76990;BME280;65924;47.250;11.332;2023-12-20T00:00:27;94979.96;;;-0.61;82.62
76990;BME280;65924;47.250;11.332;2023-12-20T00:00:57;94980.45;;;-0.60;82.44
76990;BME280;65924;47.250;11.332;2023-12-20T00:01:28;94977.96;;;-0.61;82.17
76990;BME280;65924;47.250;11.332;2023-12-20T00:01:58;94977.16;;;-0.62;82.23
76990;BME280;65924;47.250;11.332;2023-12-20T00:02:29;94978.65;;;-0.62;82.25
76990;BME280;65924;47.250;11.332;2023-12-20T00:02:59;94979.81;;;-0.62;82.29
76990;BME280;65924;47.250;11.332;2023-12-20T00:03:30;94978.64;;;-0.62;82.05
76990;BME280;65924;47.250;11.332;2023-12-20T00:04:02;94981.98;;;-0.62;82.07
76990;BME280;65924;47.250;11.332;2023-12-20T00:04:33;94979.15;;;-0.62;82.01
76990;BME280;65924;47.250;11.332;2023-12-20T00:05:04;94976.83;;;-0.63;81.92
76990;BME280;65924;47.250;11.332;2023-12-20T00:05:35;94978.83;;;-0.63;82.20
76990;BME280;65924;47.250;11.332;2023-12-20T00:06:09;94975.98;;;-0.62;82.44
76990;BME280;65924;47.250;11.332;2023-12-20T00:06:40;94975.29;;;-0.61;82.45
76990;BME280;65924;47.250;11.332;2023-12-20T00:07:11;94973.45;;;-0.60;82.70
76990;BME280;65924;47.250;11.332;2023-12-20T00:07:41;94974.09;;;-0.59;82.77
76990;BME280;65924;47.250;11.332;2023-12-20T00:08:12;94976.41;;;-0.58;82.59
76990;BME280;65924;47.250;11.332;2023-12-20T00:08:43;94973.54;;;-0.57;82.55
76990;BME280;65924;47.250;11.332;2023-12-20T00:09:14;94976.05;;;-0.57;82.29
76990;BME280;65924;47.250;11.332;2023-12-20T00:09:45;94977.02;;;-0.56;82.44
76990;BME280;65924;47.250;11.332;2023-12-20T00:10:15;94974.02;;;-0.56;82.63
76990;BME280;65924;47.250;11.332;2023-12-20T00:10:46;94977.00;;;-0.54;82.69
76990;BME280;65924;47.250;11.332;2023-12-20T00:11:17;94979.66;;;-0.53;82.71
76990;BME280;65924;47.250;11.332;2023-12-20T00:11:47;94978.48;;;-0.52;82.73
76990;BME280;65924;47.250;11.332;2023-12-20T00:12:18;94974.48;;;-0.52;82.53
76990;BME280;65924;47.250;11.332;2023-12-20T00:12:48;94975.98;;;-0.53;82.10
76990;BME280;65924;47.250;11.332;2023-12-20T00:13:19;94976.51;;;-0.54;81.94
76990;BME280;65924;47.250;11.332;2023-12-20T00:13:50;94973.86;;;-0.56;81.74
76990;BME280;65924;47.250;11.332;2023-12-20T00:14:20;94974.54;;;-0.57;81.73
76990;BME280;65924;47.250;11.332;2023-12-20T00:14:51;94973.24;;;-0.59;81.98
76990;BME280;65924;47.250;11.332;2023-12-20T00:15:22;94973.08;;;-0.59;81.82
76990;BME280;65924;47.250;11.332;2023-12-20T00:15:52;94972.94;;;-0.60;81.94
76990;BME280;65924;47.250;11.332;2023-12-20T00:16:23;94972.77;;;-0.60;81.76
76990;BME280;65924;47.250;11.332;2023-12-20T00:16:54;94971.95;;;-0.61;81.79
76990;BME280;65924;47.250;11.332;2023-12-20T00:17:24;94971.63;;;-0.62;81.60
76990;BME280;65924;47.250;11.332;2023-12-20T00:17:55;94972.81;;;-0.62;81.53
76990;BME280;65924;47.250;11.332;2023-12-20T00:18:25;94969.48;;;-0.64;81.64
76990;BME280;65924;47.250;11.332;2023-12-20T00:18:56;94969.86;;;-0.66;81.58
76990;BME280;65924;47.250;11.332;2023-12-20T00:19:26;94969.54;;;-0.66;81.64
76990;BME280;65924;47.250;11.332;2023-12-20T00:19:57;94972.55;;;-0.67;81.77
76990;BME280;65924;47.250;11.332;2023-12-20T00:20:28;94971.73;;;-0.68;81.71
76990;BME280;65924;47.250;11.332;2023-12-20T00:20:59;94971.08;;;-0.68;81.74
76990;BME280;65924;47.250;11.332;2023-12-20T00:21:30;94973.09;;;-0.69;81.39
76990;BME280;65924;47.250;11.332;2023-12-20T00:22:01;94970.77;;;-0.70;81.25
76990;BME280;65924;47.250;11.332;2023-12-20T00:22:32;94974.63;;;-0.70;81.49
76990;BME280;65924;47.250;11.332;2023-12-20T00:23:02;94968.11;;;-0.70;81.88
76990;BME280;65924;47.250;11.332;2023-12-20T00:23:33;94967.27;;;-0.70;82.14
76990;BME280;65924;47.250;11.332;2023-12-20T00:24:04;94968.91;;;-0.69;82.19
76990;BME280;65924;47.250;11.332;2023-12-20T00:24:35;94967.88;;;-0.67;82.19
76990;BME280;65924;47.250;11.332;2023-12-20T00:25:06;94968.70;;;-0.66;82.31
76990;BME280;65924;47.250;11.332;2023-12-20T00:25:37;94967.32;;;-0.64;82.51
76990;BME280;65924;47.250;11.332;2023-12-20T00:26:08;94966.77;;;-0.62;82.60
76990;BME280;65924;47.250;11.332;2023-12-20T00:26:38;94964.27;;;-0.60;82.54
76990;BME280;65924;47.250;11.332;2023-12-20T00:27:09;94963.73;;;-0.59;82.16
76990;BME280;65924;47.250;11.332;2023-12-20T00:27:40;94965.73;;;-0.59;81.83
76990;BME280;65924;47.250;11.332;2023-12-20T00:28:10;94966.77;;;-0.61;81.65
76990;BME280;65924;47.250;11.332;2023-12-20T00:28:41;94964.77;;;-0.62;81.51
76990;BME280;65924;47.250;11.332;2023-12-20T00:29:13;94965.30;;;-0.63;81.26
76990;BME280;65924;47.250;11.332;2023-12-20T00:29:43;94963.83;;;-0.64;81.12
76990;BME280;65924;47.250;11.332;2023-12-20T00:30:18;94964.35;;;-0.65;81.32
76990;BME280;65924;47.250;11.332;2023-12-20T00:30:48;94966.21;;;-0.67;81.42
76990;BME280;65924;47.250;11.332;2023-12-20T00:31:19;94963.71;;;-0.67;81.61
76990;BME280;65924;47.250;11.332;2023-12-20T00:31:49;94967.23;;;-0.68;81.67
76990;BME280;65924;47.250;11.332;2023-12-20T00:32:20;94962.56;;;-0.69;81.82
76990;BME280;65924;47.250;11.332;2023-12-20T00:32:51;94966.73;;;-0.68;82.08
76990;BME280;65924;47.250;11.332;2023-12-20T00:33:21;94964.38;;;-0.68;82.24
76990;BME280;65924;47.250;11.332;2023-12-20T00:33:52;94963.38;;;-0.67;82.24
76990;BME280;65924;47.250;11.332;2023-12-20T00:34:23;94963.86;;;-0.67;82.18
76990;BME280;65924;47.250;11.332;2023-12-20T00:34:54;94962.88;;;-0.68;82.21
76990;BME280;65924;47.250;11.332;2023-12-20T00:35:24;94963.38;;;-0.67;82.19
76990;BME280;65924;47.250;11.332;2023-12-20T00:35:55;94961.71;;;-0.68;81.98
76990;BME280;65924;47.250;11.332;2023-12-20T00:36:25;94959.88;;;-0.68;82.02
76990;BME280;65924;47.250;11.332;2023-12-20T00:36:59;94956.91;;;-0.69;82.04
76990;BME280;65924;47.250;11.332;2023-12-20T00:37:29;94957.76;;;-0.69;82.41
76990;BME280;65924;47.250;11.332;2023-12-20T00:38:00;94961.08;;;-0.69;82.39
76990;BME280;65924;47.250;11.332;2023-12-20T00:38:31;94959.72;;;-0.68;82.54
76990;BME280;65924;47.250;11.332;2023-12-20T00:39:01;94958.03;;;-0.67;82.57
76990;BME280;65924;47.250;11.332;2023-12-20T00:39:32;94960.35;;;-0.66;82.44
76990;BME280;65924;47.250;11.332;2023-12-20T00:40:03;94956.68;;;-0.66;82.52
76990;BME280;65924;47.250;11.332;2023-12-20T00:40:34;94956.84;;;-0.66;82.41
76990;BME280;65924;47.250;11.332;2023-12-20T00:41:05;94957.02;;;-0.66;82.40
76990;BME280;65924;47.250;11.332;2023-12-20T00:41:36;94957.85;;;-0.67;82.38
76990;BME280;65924;47.250;11.332;2023-12-20T00:42:06;94957.70;;;-0.68;82.30
76990;BME280;65924;47.250;11.332;2023-12-20T00:42:37;94954.70;;;-0.68;82.37
76990;BME280;65924;47.250;11.332;2023-12-20T00:43:08;94953.02;;;-0.67;82.60
76990;BME280;65924;47.250;11.332;2023-12-20T00:43:38;94957.69;;;-0.66;82.65
76990;BME280;65924;47.250;11.332;2023-12-20T00:44:09;94956.64;;;-0.64;82.83
76990;BME280;65924;47.250;11.332;2023-12-20T00:44:39;94954.46;;;-0.63;82.94
76990;BME280;65924;47.250;11.332;2023-12-20T00:45:10;94957.79;;;-0.62;82.67
76990;BME280;65924;47.250;11.332;2023-12-20T00:45:41;94956.77;;;-0.62;82.65
76990;BME280;65924;47.250;11.332;2023-12-20T00:46:11;94960.45;;;-0.62;82.70
76990;BME280;65924;47.250;11.332;2023-12-20T00:46:42;94960.77;;;-0.62;82.80
76990;BME280;65924;47.250;11.332;2023-12-20T00:47:13;94955.79;;;-0.63;82.53
76990;BME280;65924;47.250;11.332;2023-12-20T00:47:43;94956.30;;;-0.63;82.52
76990;BME280;65924;47.250;11.332;2023-12-20T00:48:14;94956.97;;;-0.63;82.41
76990;BME280;65924;47.250;11.332;2023-12-20T00:48:44;94953.83;;;-0.65;82.25
76990;BME280;65924;47.250;11.332;2023-12-20T00:49:16;94954.52;;;-0.67;82.37
76990;BME280;65924;47.250;11.332;2023-12-20T00:49:46;94955.20;;;-0.67;82.41
76990;BME280;65924;47.250;11.332;2023-12-20T00:50:17;94954.36;;;-0.67;82.51
76990;BME280;65924;47.250;11.332;2023-12-20T00:50:48;94953.52;;;-0.68;82.57
76990;BME280;65924;47.250;11.332;2023-12-20T00:51:18;94956.02;;;-0.67;82.52
76990;BME280;65924;47.250;11.332;2023-12-20T00:51:49;94956.88;;;-0.68;82.55
76990;BME280;65924;47.250;11.332;2023-12-20T00:52:20;94957.89;;;-0.68;82.50
76990;BME280;65924;47.250;11.332;2023-12-20T00:52:52;94961.23;;;-0.69;82.58
76990;BME280;65924;47.250;11.332;2023-12-20T00:53:24;94963.09;;;-0.69;82.56
76990;BME280;65924;47.250;11.332;2023-12-20T00:53:55;94964.30;;;-0.71;82.64
76990;BME280;65924;47.250;11.332;2023-12-20T00:54:26;94963.30;;;-0.73;82.58
76990;BME280;65924;47.250;11.332;2023-12-20T00:54:56;94967.82;;;-0.73;82.76
76990;BME280;65924;47.250;11.332;2023-12-20T00:55:27;94968.14;;;-0.73;82.77
76990;BME280;65924;47.250;11.332;2023-12-20T00:55:57;94971.98;;;-0.72;82.82
76990;BME280;65924;47.250;11.332;2023-12-20T00:56:29;94974.82;;;-0.72;82.82
76990;BME280;65924;47.250;11.332;2023-12-20T00:56:59;94970.98;;;-0.72;82.82
76990;BME280;65924;47.250;11.332;2023-12-20T00:57:30;94969.96;;;-0.71;82.93
76990;BME280;65924;47.250;11.332;2023-12-20T00:58:01;94975.45;;;-0.70;83.18
76990;BME280;65924;47.250;11.332;2023-12-20T00:58:32;94973.94;;;-0.69;83.08
76990;BME280;65924;47.250;11.332;2023-12-20T00:59:02;94971.05;;;-0.68;83.15
76990;BME280;65924;47.250;11.332;2023-12-20T00:59:33;94967.88;;;-0.67;83.32
76990;BME280;65924;47.250;11.332;2023-12-20T01:00:04;94970.36;;;-0.65;83.17
76990;BME280;65924;47.250;11.332;2023-12-20T01:00:35;94969.83;;;-0.64;83.04
76990;BME280;65924;47.250;11.332;2023-12-20T01:01:06;94970.82;;;-0.64;83.06
76990;BME280;65924;47.250;11.332;2023-12-20T01:01:37;94971.98;;;-0.63;83.03
76990;BME280;65924;47.250;11.332;2023-12-20T01:02:07;94970.13;;;-0.62;83.08
76990;BME280;65924;47.250;11.332;2023-12-20T01:02:39;94969.77;;;-0.61;83.15
76990;BME280;65924;47.250;11.332;2023-12-20T01:03:10;94969.61;;;-0.61;83.10
76990;BME280;65924;47.250;11.332;2023-12-20T01:03:41;94969.45;;;-0.61;83.10
76990;BME280;65924;47.250;11.332;2023-12-20T01:04:11;94968.61;;;-0.60;83.08
76990;BME280;65924;47.250;11.332;2023-12-20T01:04:42;94968.77;;;-0.61;83.04
76990;BME280;65924;47.250;11.332;2023-12-20T01:05:13;94968.77;;;-0.60;83.00
76990;BME280;65924;47.250;11.332;2023-12-20T01:05:44;94969.92;;;-0.60;83.06
76990;BME280;65924;47.250;11.332;2023-12-20T01:06:18;94969.27;;;-0.60;83.09
76990;BME280;65924;47.250;11.332;2023-12-20T01:06:49;94968.42;;;-0.60;83.12
76990;BME280;65924;47.250;11.332;2023-12-20T01:07:19;94967.93;;;-0.60;83.09
76990;BME280;65924;47.250;11.332;2023-12-20T01:07:50;94968.09;;;-0.60;83.03
76990;BME280;65924;47.250;11.332;2023-12-20T01:08:21;94971.26;;;-0.60;83.06
76990;BME280;65924;47.250;11.332;2023-12-20T01:08:52;94968.58;;;-0.59;83.09
76990;BME280;65924;47.250;11.332;2023-12-20T01:09:22;94970.23;;;-0.59;83.14
76990;BME280;65924;47.250;11.332;2023-12-20T01:10:02;94967.05;;;-0.58;83.19
76990;BME280;65924;47.250;11.332;2023-12-20T01:10:33;94970.42;;;-0.59;83.15
76990;BME280;65924;47.250;11.332;2023-12-20T01:11:04;94970.09;;;-0.59;83.11
76990;BME280;65924;47.250;11.332;2023-12-20T01:11:36;94970.23;;;-0.59;83.03
76990;BME280;65924;47.250;11.332;2023-12-20T01:12:06;94972.07;;;-0.59;83.11
76990;BME280;65924;47.250;11.332;2023-12-20T01:12:37;94969.90;;;-0.58;83.08
76990;BME280;65924;47.250;11.332;2023-12-20T01:13:08;94972.24;;;-0.59;82.92
76990;BME280;65924;47.250;11.332;2023-12-20T01:13:39;94973.58;;;-0.59;83.06
76990;BME280;65924;47.250;11.332;2023-12-20T01:14:10;94971.23;;;-0.59;82.90
76990;BME280;65924;47.250;11.332;2023-12-20T01:14:40;94971.26;;;-0.59;82.92
76990;BME280;65924;47.250;11.332;2023-12-20T01:15:11;94969.42;;;-0.59;82.87
76990;BME280;65924;47.250;11.332;2023-12-20T01:15:41;94969.75;;;-0.60;82.83
76990;BME280;65924;47.250;11.332;2023-12-20T01:16:12;94971.75;;;-0.59;82.82
76990;BME280;65924;47.250;11.332;2023-12-20T01:16:43;94968.92;;;-0.60;82.81
76990;BME280;65924;47.250;11.332;2023-12-20T01:17:13;94967.44;;;-0.60;82.73
76990;BME280;65924;47.250;11.332;2023-12-20T01:17:44;94965.60;;;-0.61;82.70
76990;BME280;65924;47.250;11.332;2023-12-20T01:18:17;94969.80;;;-0.62;82.77
76990;BME280;65924;47.250;11.332;2023-12-20T01:18:48;94971.14;;;-0.62;82.79
76990;BME280;65924;47.250;11.332;2023-12-20T01:19:19;94970.15;;;-0.63;82.74
76990;BME280;65924;47.250;11.332;2023-12-20T01:19:50;94972.17;;;-0.64;82.71
76990;BME280;65924;47.250;11.332;2023-12-20T01:20:20;94973.86;;;-0.65;82.64
76990;BME280;65924;47.250;11.332;2023-12-20T01:20:51;94971.38;;;-0.67;82.63
76990;BME280;65924;47.250;11.332;2023-12-20T01:21:22;94975.55;;;-0.67;82.64
76990;BME280;65924;47.250;11.332;2023-12-20T01:21:52;94974.23;;;-0.68;82.35
76990;BME280;65924;47.250;11.332;2023-12-20T01:22:23;94971.77;;;-0.69;82.29
76990;BME280;65924;47.250;11.332;2023-12-20T01:22:54;94973.11;;;-0.70;82.35
76990;BME280;65924;47.250;11.332;2023-12-20T01:23:25;94970.30;;;-0.71;82.41
76990;BME280;65924;47.250;11.332;2023-12-20T01:23:56;94969.80;;;-0.72;82.56
76990;BME280;65924;47.250;11.332;2023-12-20T01:24:26;94972.63;;;-0.71;82.71
76990;BME280;65924;47.250;11.332;2023-12-20T01:24:57;94968.30;;;-0.71;82.77
76990;BME280;65924;47.250;11.332;2023-12-20T01:25:27;94967.47;;;-0.72;82.67
76990;BME280;65924;47.250;11.332;2023-12-20T01:25:58;94968.13;;;-0.72;82.65
76990;BME280;65924;47.250;11.332;2023-12-20T01:26:30;94972.64;;;-0.71;82.49
76990;BME280;65924;47.250;11.332;2023-12-20T01:27:00;94969.48;;;-0.73;82.37
76990;BME280;65924;47.250;11.332;2023-12-20T01:27:31;94972.00;;;-0.73;82.30
76990;BME280;65924;47.250;11.332;2023-12-20T01:28:02;94973.51;;;-0.74;82.01
76990;BME280;65924;47.250;11.332;2023-12-20T01:28:33;94973.20;;;-0.75;82.05
76990;BME280;65924;47.250;11.332;2023-12-20T01:29:04;94970.54;;;-0.76;82.08
76990;BME280;65924;47.250;11.332;2023-12-20T01:29:34;94971.39;;;-0.77;82.17
76990;BME280;65924;47.250;11.332;2023-12-20T01:30:05;94964.20;;;-0.77;82.14
76990;BME280;65924;47.250;11.332;2023-12-20T01:30:36;94963.55;;;-0.78;82.25
76990;BME280;65924;47.250;11.332;2023-12-20T01:31:16;94963.73;;;-0.78;82.32
76990;BME280;65924;47.250;11.332;2023-12-20T01:31:46;94963.52;;;-0.76;82.61
76990;BME280;65924;47.250;11.332;2023-12-20T01:32:17;94963.19;;;-0.75;82.72
76990;BME280;65924;47.250;11.332;2023-12-20T01:32:48;94963.34;;;-0.74;82.85
76990;BME280;65924;47.250;11.332;2023-12-20T01:33:18;94964.32;;;-0.73;82.86
76990;BME280;65924;47.250;11.332;2023-12-20T01:33:49;94962.64;;;-0.72;82.81
76990;BME280;65924;47.250;11.332;2023-12-20T01:34:20;94964.96;;;-0.71;82.89
76990;BME280;65924;47.250;11.332;2023-12-20T01:34:51;94965.77;;;-0.70;82.82
76990;BME280;65924;47.250;11.332;2023-12-20T01:35:21;94967.94;;;-0.69;82.88
76990;BME280;65924;47.250;11.332;2023-12-20T01:35:52;94965.40;;;-0.69;82.95
76990;BME280;65924;47.250;11.332;2023-12-20T01:36:23;94964.71;;;-0.68;82.85
76990;BME280;65924;47.250;11.332;2023-12-20T01:36:53;94962.54;;;-0.67;82.88
76990;BME280;65924;47.250;11.332;2023-12-20T01:37:24;94959.86;;;-0.67;82.81
76990;BME280;65924;47.250;11.332;2023-12-20T01:37:55;94960.35;;;-0.66;82.88
76990;BME280;65924;47.250;11.332;2023-12-20T01:38:27;94960.01;;;-0.65;82.91
76990;BME280;65924;47.250;11.332;2023-12-20T01:38:57;94958.48;;;-0.64;82.91
76990;BME280;65924;47.250;11.332;2023-12-20T01:39:28;94957.46;;;-0.63;82.99
76990;BME280;65924;47.250;11.332;2023-12-20T01:39:58;94952.59;;;-0.62;82.91
76990;BME280;65924;47.250;11.332;2023-12-20T01:40:29;94955.25;;;-0.60;82.96
76990;BME280;65924;47.250;11.332;2023-12-20T01:41:00;94955.71;;;-0.59;83.13
76990;BME280;65924;47.250;11.332;2023-12-20T01:41:30;94952.01;;;-0.58;83.20
76990;BME280;65924;47.250;11.332;2023-12-20T01:42:01;94951.98;;;-0.57;83.19
76990;BME280;65924;47.250;11.332;2023-12-20T01:42:32;94950.97;;;-0.55;83.08
76990;BME280;65924;47.250;11.332;2023-12-20T01:43:11;94949.30;;;-0.55;83.16
76990;BME280;65924;47.250;11.332;2023-12-20T01:43:42;94946.95;;;-0.53;83.09
76990;BME280;65924;47.250;11.332;2023-12-20T01:44:13;94944.43;;;-0.53;83.18
76990;BME280;65924;47.250;11.332;2023-12-20T01:44:43;94942.58;;;-0.52;83.26
76990;BME280;65924;47.250;11.332;2023-12-20T01:45:14;94941.55;;;-0.50;83.33
76990;BME280;65924;47.250;11.332;2023-12-20T01:45:46;94940.86;;;-0.50;83.41
76990;BME280;65924;47.250;11.332;2023-12-20T01:46:17;94939.01;;;-0.49;83.35
76990;BME280;65924;47.250;11.332;2023-12-20T01:46:49;94935.64;;;-0.47;83.29
76990;BME280;65924;47.250;11.332;2023-12-20T01:47:20;94933.79;;;-0.47;83.34
76990;BME280;65924;47.250;11.332;2023-12-20T01:47:52;94936.95;;;-0.46;83.32
76990;BME280;65924;47.250;11.332;2023-12-20T01:48:24;94933.27;;;-0.45;83.35
76990;BME280;65924;47.250;11.332;2023-12-20T01:48:55;94935.59;;;-0.45;83.43
76990;BME280;65924;47.250;11.332;2023-12-20T01:49:26;94933.59;;;-0.45;83.24
76990;BME280;65924;47.250;11.332;2023-12-20T01:49:58;94937.25;;;-0.45;83.26
76990;BME280;65924;47.250;11.332;2023-12-20T01:50:31;94939.45;;;-0.46;83.16
76990;BME280;65924;47.250;11.332;2023-12-20T01:51:02;94937.45;;;-0.46;83.05
76990;BME280;65924;47.250;11.332;2023-12-20T01:51:35;94937.45;;;-0.47;83.10
76990;BME280;65924;47.250;11.332;2023-12-20T01:52:07;94936.13;;;-0.46;83.12
76990;BME280;65924;47.250;11.332;2023-12-20T01:52:38;94935.64;;;-0.47;83.13
76990;BME280;65924;47.250;11.332;2023-12-20T01:53:09;94936.15;;;-0.48;82.97
76990;BME280;65924;47.250;11.332;2023-12-20T01:53:42;94935.51;;;-0.48;83.12
76990;BME280;65924;47.250;11.332;2023-12-20T01:54:13;94936.16;;;-0.49;83.18
76990;BME280;65924;47.250;11.332;2023-12-20T01:54:47;94935.20;;;-0.50;83.27
76990;BME280;65924;47.250;11.332;2023-12-20T01:55:19;94935.39;;;-0.51;83.32
76990;BME280;65924;47.250;11.332;2023-12-20T01:55:52;94933.89;;;-0.51;83.43
76990;BME280;65924;47.250;11.332;2023-12-20T01:56:26;94931.21;;;-0.51;83.32
76990;BME280;65924;47.250;11.332;2023-12-20T01:56:57;94930.20;;;-0.51;83.28
76990;BME280;65924;47.250;11.332;2023-12-20T01:57:28;94924.34;;;-0.50;83.35
76990;BME280;65924;47.250;11.332;2023-12-20T01:57:59;94922.84;;;-0.50;83.28
76990;BME280;65924;47.250;11.332;2023-12-20T01:58:30;94919.83;;;-0.49;83.26
76990;BME280;65924;47.250;11.332;2023-12-20T01:59:00;94919.31;;;-0.49;83.39
76990;BME280;65924;47.250;11.332;2023-12-20T01:59:31;94918.14;;;-0.49;83.46
76990;BME280;65924;47.250;11.332;2023-12-20T02:00:02;94915.45;;;-0.48;83.58
76990;BME280;65924;47.250;11.332;2023-12-20T02:00:36;94914.27;;;-0.48;83.53
76990;BME280;65924;47.250;11.332;2023-12-20T02:01:07;94916.43;;;-0.47;83.44
76990;BME280;65924;47.250;11.332;2023-12-20T02:01:38;94912.77;;;-0.48;83.17
76990;BME280;65924;47.250;11.332;2023-12-20T02:02:08;94913.80;;;-0.48;83.08
76990;BME280;65924;47.250;11.332;2023-12-20T02:02:40;94912.64;;;-0.49;82.76
76990;BME280;65924;47.250;11.332;2023-12-20T02:03:11;94911.99;;;-0.51;82.65
76990;BME280;65924;47.250;11.332;2023-12-20T02:03:42;94908.34;;;-0.52;82.60
76990;BME280;65924;47.250;11.332;2023-12-20T02:04:13;94908.02;;;-0.52;82.80
76990;BME280;65924;47.250;11.332;2023-12-20T02:04:44;94902.52;;;-0.52;82.76
76990;BME280;65924;47.250;11.332;2023-12-20T02:05:15;94900.69;;;-0.53;82.79
76990;BME280;65924;47.250;11.332;2023-12-20T02:05:47;94901.20;;;-0.54;82.65
76990;BME280;65924;47.250;11.332;2023-12-20T02:06:18;94898.21;;;-0.54;82.67
76990;BME280;65924;47.250;11.332;2023-12-20T02:06:52;94895.38;;;-0.55;82.66
76990;BME280;65924;47.250;11.332;2023-12-20T02:07:23;94897.39;;;-0.56;82.59
76990;BME280;65924;47.250;11.332;2023-12-20T02:07:54;94894.55;;;-0.56;82.58
76990;BME280;65924;47.250;11.332;2023-12-20T02:08:27;94891.23;;;-0.57;82.60
76990;BME280;65924;47.250;11.332;2023-12-20T02:08:58;94892.73;;;-0.57;82.53
76990;BME280;65924;47.250;11.332;2023-12-20T02:09:29;94894.77;;;-0.58;82.43
76990;BME280;65924;47.250;11.332;2023-12-20T02:10:00;94887.27;;;-0.59;82.48
76990;BME280;65924;47.250;11.332;2023-12-20T02:10:30;94889.10;;;-0.59;82.46
76990;BME280;65924;47.250;11.332;2023-12-20T02:11:01;94888.45;;;-0.59;82.51
76990;BME280;65924;47.250;11.332;2023-12-20T02:11:32;94884.92;;;-0.59;82.55
76990;BME280;65924;47.250;11.332;2023-12-20T02:12:04;94883.12;;;-0.60;82.43
76990;BME280;65924;47.250;11.332;2023-12-20T02:12:35;94883.29;;;-0.60;82.44
76990;BME280;65924;47.250;11.332;2023-12-20T02:13:05;94882.29;;;-0.60;82.40
76990;BME280;65924;47.250;11.332;2023-12-20T02:13:36;94882.30;;;-0.61;82.43
76990;BME280;65924;47.250;11.332;2023-12-20T02:14:07;94877.64;;;-0.62;82.29
76990;BME280;65924;47.250;11.332;2023-12-20T02:14:37;94875.48;;;-0.62;82.27
76990;BME280;65924;47.250;11.332;2023-12-20T02:15:08;94870.96;;;-0.62;82.23
76990;BME280;65924;47.250;11.332;2023-12-20T02:15:39;94868.14;;;-0.62;82.37
76990;BME280;65924;47.250;11.332;2023-12-20T02:16:12;94864.48;;;-0.63;82.30
76990;BME280;65924;47.250;11.332;2023-12-20T02:16:42;94864.67;;;-0.64;82.26
76990;BME280;65924;47.250;11.332;2023-12-20T02:17:13;94861.34;;;-0.65;82.37
76990;BME280;65924;47.250;11.332;2023-12-20T02:17:45;94858.34;;;-0.65;82.36
76990;BME280;65924;47.250;11.332;2023-12-20T02:18:15;94857.52;;;-0.66;82.35
76990;BME280;65924;47.250;11.332;2023-12-20T02:18:47;94854.02;;;-0.65;82.37
76990;BME280;65924;47.250;11.332;2023-12-20T02:19:17;94853.19;;;-0.66;82.40
76990;BME280;65924;47.250;11.332;2023-12-20T02:19:49;94849.53;;;-0.67;82.42
76990;BME280;65924;47.250;11.332;2023-12-20T02:20:20;94845.86;;;-0.67;82.39
76990;BME280;65924;47.250;11.332;2023-12-20T02:20:51;94844.02;;;-0.67;82.45
76990;BME280;65924;47.250;11.332;2023-12-20T02:21:34;94838.85;;;-0.68;82.47
76990;BME280;65924;47.250;11.332;2023-12-20T02:22:12;94841.23;;;-0.68;82.39
76990;BME280;65924;47.250;11.332;2023-12-20T02:22:43;94842.25;;;-0.70;82.36
76990;BME280;65924;47.250;11.332;2023-12-20T02:23:13;94839.26;;;-0.70;82.52
76990;BME280;65924;47.250;11.332;2023-12-20T02:23:44;94841.27;;;-0.71;82.32
76990;BME280;65924;47.250;11.332;2023-12-20T02:24:14;94839.77;;;-0.71;82.43
76990;BME280;65924;47.250;11.332;2023-12-20T02:24:45;94837.11;;;-0.72;82.31
76990;BME280;65924;47.250;11.332;2023-12-20T02:25:16;94833.96;;;-0.73;82.39
76990;BME280;65924;47.250;11.332;2023-12-20T02:25:47;94828.27;;;-0.72;82.44
76990;BME280;65924;47.250;11.332;2023-12-20T02:26:17;94828.11;;;-0.72;82.66
76990;BME280;65924;47.250;11.332;2023-12-20T02:26:49;94825.95;;;-0.73;82.77
76990;BME280;65924;47.250;11.332;2023-12-20T02:27:19;94825.59;;;-0.71;83.04
76990;BME280;65924;47.250;11.332;2023-12-20T02:27:50;94828.07;;;-0.70;83.11
76990;BME280;65924;47.250;11.332;2023-12-20T02:28:21;94827.89;;;-0.69;83.28
76990;BME280;65924;47.250;11.332;2023-12-20T02:28:52;94825.84;;;-0.68;83.35
76990;BME280;65924;47.250;11.332;2023-12-20T02:29:24;94828.00;;;-0.67;83.21
76990;BME280;65924;47.250;11.332;2023-12-20T02:29:54;94822.48;;;-0.67;83.14
76990;BME280;65924;47.250;11.332;2023-12-20T02:30:25;94820.83;;;-0.67;83.03
76990;BME280;65924;47.250;11.332;2023-12-20T02:30:55;94814.82;;;-0.68;82.95
76990;BME280;65924;47.250;11.332;2023-12-20T02:31:26;94809.65;;;-0.68;82.82
76990;BME280;65924;47.250;11.332;2023-12-20T02:31:57;94806.83;;;-0.69;83.03
76990;BME280;65924;47.250;11.332;2023-12-20T02:32:27;94808.48;;;-0.68;83.12
76990;BME280;65924;47.250;11.332;2023-12-20T02:33:00;94806.48;;;-0.68;83.23
76990;BME280;65924;47.250;11.332;2023-12-20T02:33:31;94809.47;;;-0.67;83.07
76990;BME280;65924;47.250;11.332;2023-12-20T02:34:02;94810.98;;;-0.68;83.00
76990;BME280;65924;47.250;11.332;2023-12-20T02:34:32;94812.31;;;-0.68;83.01
76990;BME280;65924;47.250;11.332;2023-12-20T02:35:03;94812.64;;;-0.68;82.99
76990;BME280;65924;47.250;11.332;2023-12-20T02:35:34;94811.33;;;-0.67;82.94
76990;BME280;65924;47.250;11.332;2023-12-20T02:36:06;94808.82;;;-0.67;82.95
76990;BME280;65924;47.250;11.332;2023-12-20T02:36:37;94804.81;;;-0.68;82.78
76990;BME280;65924;47.250;11.332;2023-12-20T02:37:07;94800.50;;;-0.69;82.50
76990;BME280;65924;47.250;11.332;2023-12-20T02:37:38;94804.20;;;-0.70;82.51
76990;BME280;65924;47.250;11.332;2023-12-20T02:38:08;94801.04;;;-0.70;82.57
76990;BME280;65924;47.250;11.332;2023-12-20T02:38:39;94802.23;;;-0.71;82.68
76990;BME280;65924;47.250;11.332;2023-12-20T02:39:10;94802.05;;;-0.71;82.74
76990;BME280;65924;47.250;11.332;2023-12-20T02:39:40;94808.38;;;-0.70;82.89
76990;BME280;65924;47.250;11.332;2023-12-20T02:40:11;94810.05;;;-0.70;83.17
76990;BME280;65924;47.250;11.332;2023-12-20T02:40:42;94813.17;;;-0.69;83.40
76990;BME280;65924;47.250;11.332;2023-12-20T02:41:13;94814.82;;;-0.67;83.48
76990;BME280;65924;47.250;11.332;2023-12-20T02:41:44;94817.64;;;-0.66;83.47
76990;BME280;65924;47.250;11.332;2023-12-20T02:42:15;94818.13;;;-0.66;83.40
76990;BME280;65924;47.250;11.332;2023-12-20T02:42:46;94820.65;;;-0.66;83.34